createdAt,value
2018-05-09T00:00:35.272Z,2.73
2018-05-09T00:03:02.661Z,2.67
2018-05-09T00:05:30.044Z,2.75
2018-05-09T00:07:57.419Z,3.00
2018-05-09T00:10:24.821Z,3.03
2018-05-09T00:12:52.203Z,2.47
2018-05-09T00:15:19.588Z,2.97
2018-05-09T00:17:48.008Z,2.65
2018-05-09T00:20:15.397Z,2.87
2018-05-09T00:22:42.785Z,2.80
2018-05-09T00:25:10.179Z,1.97
2018-05-09T00:27:37.570Z,2.30
2018-05-09T00:30:04.965Z,2.33
2018-05-09T00:32:32.352Z,2.53
2018-05-09T00:34:59.744Z,2.60
2018-05-09T00:37:27.138Z,2.30
2018-05-09T00:39:54.524Z,3.35
2018-05-09T00:42:21.916Z,2.60
2018-05-09T00:44:49.314Z,2.87
2018-05-09T00:47:16.692Z,2.65
2018-05-09T00:49:44.085Z,3.77
2018-05-09T00:52:12.304Z,2.47
2018-05-09T00:54:39.698Z,2.67
2018-05-09T00:57:07.081Z,2.50
2018-05-09T00:59:34.468Z,2.30
2018-05-09T01:02:01.852Z,2.93
2018-05-09T01:04:29.248Z,2.70
2018-05-09T01:06:56.636Z,2.70
2018-05-09T01:09:24.045Z,2.73
2018-05-09T01:11:51.436Z,3.33
2018-05-09T01:14:19.707Z,3.03
2018-05-09T01:16:47.032Z,3.07
2018-05-09T01:19:14.416Z,2.63
2018-05-09T01:21:41.821Z,3.43
2018-05-09T01:24:09.204Z,3.33
2018-05-09T01:26:36.602Z,2.80
2018-05-09T01:29:03.992Z,2.97
2018-05-09T01:31:31.379Z,3.80
2018-05-09T01:33:58.770Z,2.90
2018-05-09T01:36:26.621Z,2.90
2018-05-09T01:38:54.008Z,2.20
2018-05-09T01:41:21.400Z,2.73
2018-05-09T01:43:48.784Z,3.20
2018-05-09T01:46:17.161Z,2.60
2018-05-09T01:48:44.540Z,3.53
2018-05-09T01:51:12.774Z,2.90
2018-05-09T01:53:40.145Z,3.00
2018-05-09T01:56:07.533Z,2.93
2018-05-09T01:58:34.922Z,3.70
2018-05-09T02:01:02.308Z,3.53
2018-05-09T02:03:29.699Z,3.67
2018-05-09T02:05:57.104Z,3.17
2018-05-09T02:08:24.471Z,3.40
2018-05-09T02:10:51.862Z,2.60
2018-05-09T02:13:19.241Z,2.85
2018-05-09T02:15:46.637Z,2.57
2018-05-09T02:18:14.017Z,3.50
2018-05-09T02:20:41.413Z,2.87
2018-05-09T02:23:08.796Z,2.80
2018-05-09T02:25:36.191Z,2.97
2018-05-09T02:28:03.615Z,3.35
2018-05-09T02:30:30.999Z,3.03
2018-05-09T02:32:58.391Z,3.20
2018-05-09T02:35:25.844Z,3.30
2018-05-09T02:37:54.149Z,2.93
2018-05-09T02:40:22.195Z,3.47
2018-05-09T02:42:50.165Z,3.83
2018-05-09T02:45:17.550Z,3.43
2018-05-09T02:47:44.949Z,3.60
2018-05-09T02:50:12.329Z,3.60
2018-05-09T02:52:39.733Z,5.33
2018-05-09T02:55:07.112Z,4.40
2018-05-09T02:57:34.502Z,3.07
2018-05-09T03:00:01.884Z,3.37
2018-05-09T03:02:29.290Z,3.30
2018-05-09T03:04:56.663Z,3.50
2018-05-09T03:07:24.076Z,3.67
2018-05-09T03:09:51.466Z,3.70
2018-05-09T03:12:18.849Z,3.80
2018-05-09T03:14:46.233Z,3.60
2018-05-09T03:17:13.631Z,4.30
2018-05-09T03:19:41.008Z,4.30
2018-05-09T03:22:08.411Z,4.18
2018-05-09T03:24:35.784Z,3.80
2018-05-09T03:27:03.176Z,4.10
2018-05-09T03:29:30.573Z,4.17
2018-05-09T03:31:57.956Z,3.87
2018-05-09T03:34:25.337Z,3.70
2018-05-09T03:36:52.736Z,4.00
2018-05-09T03:39:20.116Z,4.30
2018-05-09T03:41:47.509Z,4.57
2018-05-09T03:44:14.889Z,4.83
2018-05-09T03:46:42.274Z,4.13
2018-05-09T03:49:09.676Z,3.80
2018-05-09T03:51:37.061Z,4.20
2018-05-09T03:54:04.456Z,5.00
2018-05-09T03:56:31.851Z,5.23
2018-05-09T03:58:59.248Z,4.55
2018-05-09T04:01:26.686Z,4.03
2018-05-09T04:04:06.593Z,4.25
2018-05-09T04:06:45.725Z,3.60
2018-05-09T04:09:25.162Z,3.33
2018-05-09T04:11:52.450Z,4.00
2018-05-09T04:14:20.748Z,4.20
2018-05-09T04:16:48.132Z,4.60
2018-05-09T04:19:15.522Z,5.40
2018-05-09T04:21:42.908Z,5.20
2018-05-09T04:24:10.303Z,4.33
2018-05-09T04:26:37.693Z,3.90
2018-05-09T04:29:05.084Z,4.80
2018-05-09T04:31:33.371Z,4.10
2018-05-09T04:34:00.764Z,4.40
2018-05-09T04:36:28.144Z,4.80
2018-05-09T04:38:55.852Z,5.23
2018-05-09T04:41:23.246Z,4.93
2018-05-09T04:43:50.638Z,4.13
2018-05-09T04:46:18.024Z,3.87
2018-05-09T04:48:45.422Z,4.37
2018-05-09T04:51:12.856Z,4.73
2018-05-09T04:53:40.253Z,4.20
2018-05-09T04:56:07.649Z,4.83
2018-05-09T04:58:35.055Z,4.82
2018-05-09T05:01:02.436Z,5.62
2018-05-09T05:03:29.835Z,5.93
2018-05-09T05:05:57.241Z,4.87
2018-05-09T05:08:24.641Z,4.82
2018-05-09T05:10:52.036Z,5.27
2018-05-09T05:13:19.424Z,4.30
2018-05-09T05:15:46.911Z,5.90
2018-05-09T05:18:14.208Z,5.73
2018-05-09T05:20:41.603Z,7.20
2018-05-09T05:23:08.976Z,5.57
2018-05-09T05:25:36.379Z,4.97
2018-05-09T05:28:03.767Z,5.87
2018-05-09T05:30:31.156Z,4.23
2018-05-09T05:32:58.545Z,5.45
2018-05-09T05:35:25.936Z,6.13
2018-05-09T05:37:53.331Z,6.13
2018-05-09T05:40:20.727Z,4.82
2018-05-09T05:42:48.104Z,5.40
2018-05-09T05:45:15.547Z,5.30
2018-05-09T05:47:42.886Z,6.20
2018-05-09T05:50:10.711Z,6.17
2018-05-09T05:52:38.110Z,6.40
2018-05-09T05:55:05.485Z,5.97
2018-05-09T05:57:32.884Z,5.70
2018-05-09T06:00:00.274Z,4.47
2018-05-09T06:02:27.669Z,4.70
2018-05-09T06:04:55.054Z,6.30
2018-05-09T06:07:22.448Z,6.53
2018-05-09T06:09:49.835Z,7.68
2018-05-09T06:12:17.232Z,7.03
2018-05-09T06:14:45.455Z,4.93
2018-05-09T06:17:12.940Z,6.40
2018-05-09T06:19:40.259Z,5.80
2018-05-09T06:22:07.660Z,6.07
2018-05-09T06:24:35.056Z,6.50
2018-05-09T06:27:02.445Z,6.03
2018-05-09T06:29:29.827Z,6.70
2018-05-09T06:31:58.056Z,6.83
2018-05-09T06:34:25.445Z,5.60
2018-05-09T06:36:52.847Z,5.65
2018-05-09T06:39:20.244Z,6.00
2018-05-09T06:41:47.693Z,6.47
2018-05-09T06:44:15.035Z,6.80
2018-05-09T06:46:43.564Z,6.27
2018-05-09T06:49:10.976Z,5.50
2018-05-09T06:51:38.369Z,6.63
2018-05-09T06:54:05.783Z,6.63
2018-05-09T06:56:33.150Z,6.30
2018-05-09T06:59:00.741Z,6.10
2018-05-09T07:01:28.112Z,5.90
2018-05-09T07:03:55.518Z,5.17
2018-05-09T07:06:23.009Z,6.73
2018-05-09T07:08:50.312Z,5.93
2018-05-09T07:11:17.698Z,6.00
2018-05-09T07:13:45.091Z,5.37
2018-05-09T07:16:12.476Z,6.37
2018-05-09T07:18:39.877Z,7.20
2018-05-09T07:21:07.252Z,7.20
2018-05-09T07:23:34.652Z,6.30
2018-05-09T07:26:02.279Z,7.07
2018-05-09T07:28:30.249Z,7.95
2018-05-09T07:30:57.660Z,6.63
2018-05-09T07:33:25.036Z,6.90
2018-05-09T07:35:52.421Z,6.97
2018-05-09T07:38:19.822Z,5.70
2018-05-09T07:40:47.200Z,6.32
2018-05-09T07:43:14.613Z,5.27
2018-05-09T07:45:41.997Z,5.90
2018-05-09T07:48:09.401Z,5.62
2018-05-09T07:50:36.789Z,6.20
2018-05-09T07:53:04.176Z,6.00
2018-05-09T07:55:31.614Z,5.67
2018-05-09T07:57:58.975Z,6.73
2018-05-09T08:00:26.357Z,5.93
2018-05-09T08:02:53.765Z,6.10
2018-05-09T08:05:21.172Z,4.40
2018-05-09T08:07:48.571Z,5.00
2018-05-09T08:10:16.589Z,5.20
2018-05-09T08:12:44.434Z,4.77
2018-05-09T08:15:11.776Z,5.20
2018-05-09T08:17:39.167Z,4.55
2018-05-09T08:20:07.480Z,4.23
2018-05-09T08:22:34.867Z,5.37
2018-05-09T08:25:02.263Z,4.97
2018-05-09T08:27:29.653Z,5.20
2018-05-09T08:29:57.074Z,5.03
2018-05-09T08:32:24.445Z,5.90
2018-05-09T08:34:51.836Z,4.73
2018-05-09T08:37:19.232Z,4.40
2018-05-09T08:39:46.633Z,4.40
2018-05-09T08:42:14.015Z,4.33
2018-05-09T08:44:41.404Z,3.90
2018-05-09T08:47:08.795Z,3.60
2018-05-09T08:49:36.205Z,4.33
2018-05-09T08:52:03.584Z,4.47
2018-05-09T08:54:30.984Z,3.83
2018-05-09T08:56:58.379Z,4.25
2018-05-09T08:59:25.765Z,4.47
2018-05-09T09:01:53.561Z,3.20
2018-05-09T09:04:20.997Z,4.10
2018-05-09T09:06:48.341Z,3.73
2018-05-09T09:09:15.732Z,3.70
2018-05-09T09:11:43.122Z,3.60
2018-05-09T09:14:10.543Z,3.80
2018-05-09T09:16:37.938Z,3.60
2018-05-09T09:19:05.316Z,3.70
2018-05-09T09:21:32.706Z,3.40
2018-05-09T09:24:00.129Z,3.83
2018-05-09T09:26:27.856Z,4.03
2018-05-09T09:28:55.237Z,3.80
2018-05-09T09:31:22.641Z,4.47
2018-05-09T09:33:50.038Z,5.05
2018-05-09T09:36:17.434Z,4.30
2018-05-09T09:38:44.820Z,4.73
2018-05-09T09:41:12.212Z,4.78
2018-05-09T09:43:40.029Z,5.17
2018-05-09T09:46:07.656Z,4.70
2018-05-09T09:48:35.041Z,4.53
2018-05-09T09:51:02.427Z,4.10
2018-05-09T09:53:29.815Z,5.62
2018-05-09T09:55:57.210Z,4.30
2018-05-09T09:58:24.604Z,4.63
2018-05-09T10:00:52.690Z,5.03
2018-05-09T10:03:20.093Z,4.53
2018-05-09T10:05:47.480Z,5.00
2018-05-09T10:08:14.861Z,5.10
2018-05-09T10:10:43.028Z,5.27
2018-05-09T10:13:10.423Z,4.97
2018-05-09T10:15:37.815Z,5.63
2018-05-09T10:18:05.201Z,5.13
2018-05-09T10:20:32.585Z,5.73
2018-05-09T10:22:59.972Z,5.73
2018-05-09T10:25:27.371Z,4.73
2018-05-09T10:27:54.999Z,5.37
2018-05-09T10:30:22.411Z,5.50
2018-05-09T10:32:49.994Z,4.93
2018-05-09T10:35:17.358Z,4.87
2018-05-09T10:37:44.748Z,4.40
2018-05-09T10:40:12.142Z,4.30
2018-05-09T10:42:40.209Z,4.70
2018-05-09T10:45:07.601Z,4.50
2018-05-09T10:47:34.994Z,5.83
2018-05-09T10:50:02.379Z,5.57
2018-05-09T10:52:29.788Z,5.07
2018-05-09T10:54:57.177Z,4.63
2018-05-09T10:57:24.583Z,5.70
2018-05-09T10:59:51.960Z,4.80
2018-05-09T11:02:19.404Z,5.27
2018-05-09T11:04:46.830Z,6.23
2018-05-09T11:07:14.215Z,5.43
2018-05-09T11:09:41.601Z,5.50
2018-05-09T11:12:08.992Z,7.20
2018-05-09T11:14:36.382Z,7.17
2018-05-09T11:17:03.788Z,5.63
2018-05-09T11:19:31.396Z,6.03
2018-05-09T11:21:58.788Z,6.70
2018-05-09T11:24:26.277Z,6.03
2018-05-09T11:26:53.569Z,6.20
2018-05-09T11:29:20.948Z,7.03
2018-05-09T11:31:48.345Z,6.73
2018-05-09T11:34:15.745Z,7.03
2018-05-09T11:36:43.140Z,6.40
2018-05-09T11:39:10.602Z,7.18
2018-05-09T11:41:37.985Z,6.10
2018-05-09T11:44:05.390Z,5.03
2018-05-09T11:46:32.769Z,5.97
2018-05-09T11:49:00.983Z,5.57
2018-05-09T11:51:28.385Z,5.90
2018-05-09T11:53:55.779Z,5.90
2018-05-09T11:56:23.155Z,5.17
2018-05-09T11:58:50.545Z,5.82
2018-05-09T12:01:17.938Z,6.10
2018-05-09T12:03:45.329Z,4.97
2018-05-09T12:06:12.727Z,5.97
2018-05-09T12:08:40.118Z,6.05
2018-05-09T12:11:07.506Z,6.70
2018-05-09T12:13:34.906Z,6.33
2018-05-09T12:16:02.300Z,5.90
2018-05-09T12:18:29.722Z,6.83
2018-05-09T12:20:57.108Z,6.40
2018-05-09T12:23:24.512Z,6.67
2018-05-09T12:25:51.897Z,5.40
2018-05-09T12:28:19.295Z,5.53
2018-05-09T12:30:46.687Z,6.50
2018-05-09T12:33:14.068Z,6.80
2018-05-09T12:35:41.465Z,6.47
2018-05-09T12:38:08.840Z,6.50
2018-05-09T12:40:36.240Z,5.10
2018-05-09T12:43:03.635Z,5.67
2018-05-09T12:45:31.041Z,5.68
2018-05-09T12:47:58.420Z,5.23
2018-05-09T12:50:25.812Z,5.47
2018-05-09T12:52:54.313Z,5.37
2018-05-09T12:55:22.620Z,5.30
2018-05-09T12:57:50.008Z,5.30
2018-05-09T13:00:17.417Z,4.87
2018-05-09T13:02:44.797Z,6.00
2018-05-09T13:05:12.192Z,6.50
2018-05-09T13:07:39.596Z,5.90
2018-05-09T13:10:06.983Z,5.33
2018-05-09T13:12:34.393Z,5.60
2018-05-09T13:15:01.787Z,4.82
2018-05-09T13:17:29.171Z,5.77
2018-05-09T13:19:56.564Z,5.47
2018-05-09T13:22:24.616Z,5.80
2018-05-09T13:24:52.007Z,5.20
2018-05-09T13:27:19.396Z,4.70
2018-05-09T13:29:47.804Z,6.53
2018-05-09T13:32:15.186Z,5.03
2018-05-09T13:34:43.176Z,4.40
2018-05-09T13:37:10.546Z,5.07
2018-05-09T13:39:37.959Z,4.83
2018-05-09T13:42:05.356Z,5.60
2018-05-09T13:44:33.092Z,5.20
2018-05-09T13:47:00.488Z,5.65
2018-05-09T13:49:27.955Z,5.20
2018-05-09T13:51:55.382Z,5.37
2018-05-09T13:54:22.760Z,4.95
2018-05-09T13:56:50.144Z,5.00
2018-05-09T13:59:18.082Z,5.40
2018-05-09T14:01:45.487Z,4.40
2018-05-09T14:04:12.892Z,5.30
2018-05-09T14:06:40.605Z,4.97
2018-05-09T14:09:07.998Z,4.97
2018-05-09T14:11:35.396Z,5.00
2018-05-09T14:14:02.809Z,4.50
2018-05-09T14:16:30.984Z,4.97
2018-05-09T14:18:58.357Z,4.35
2018-05-09T14:21:26.458Z,4.60
2018-05-09T14:23:53.838Z,4.30
2018-05-09T14:26:21.225Z,4.40
2018-05-09T14:28:49.871Z,5.55
2018-05-09T14:31:17.674Z,4.90
2018-05-09T14:33:45.053Z,4.60
2018-05-09T14:36:13.115Z,4.77
2018-05-09T14:38:40.484Z,4.23
2018-05-09T14:41:07.880Z,5.23
2018-05-09T14:43:35.268Z,5.17
2018-05-09T14:46:02.706Z,3.77
2018-05-09T14:48:30.989Z,4.77
2018-05-09T14:50:58.379Z,4.27
2018-05-09T14:53:26.608Z,5.07
2018-05-09T14:55:54.360Z,5.23
2018-05-09T14:58:21.744Z,5.00
2018-05-09T15:00:49.741Z,3.80
2018-05-09T15:03:17.141Z,4.13
2018-05-09T15:05:44.802Z,4.97
2018-05-09T15:08:12.188Z,4.70
2018-05-09T15:10:39.572Z,5.40
2018-05-09T15:13:06.970Z,6.00
2018-05-09T15:15:34.354Z,5.47
2018-05-09T15:18:01.761Z,4.43
2018-05-09T15:20:29.176Z,5.00
2018-05-09T15:22:56.563Z,5.10
2018-05-09T15:25:23.958Z,4.20
2018-05-09T15:27:51.360Z,4.28
2018-05-09T15:30:18.754Z,3.77
2018-05-09T15:32:46.246Z,4.50
2018-05-09T15:35:13.547Z,4.43
2018-05-09T15:37:41.849Z,4.30
2018-05-09T15:40:09.269Z,4.13
2018-05-09T15:42:37.916Z,4.13
2018-05-09T15:45:05.313Z,4.10
2018-05-09T15:47:32.716Z,5.00
2018-05-09T15:50:00.809Z,3.90
2018-05-09T15:52:28.556Z,4.90
2018-05-09T15:54:55.950Z,3.92
2018-05-09T15:57:23.336Z,4.40
2018-05-09T15:59:52.299Z,3.90
2018-05-09T16:02:19.696Z,4.37
2018-05-09T16:04:47.084Z,4.90
2018-05-09T16:07:15.311Z,3.80
2018-05-09T16:12:16.449Z,3.40
2018-05-09T16:14:43.826Z,3.77
2018-05-09T16:17:11.220Z,3.53
2018-05-09T16:19:38.602Z,4.07
2018-05-09T16:22:05.988Z,3.47
2018-05-09T16:24:33.382Z,3.03
2018-05-09T16:27:00.789Z,3.67
2018-05-09T16:29:29.088Z,3.20
2018-05-09T16:31:56.482Z,3.30
2018-05-09T16:34:24.757Z,2.67
2018-05-09T16:36:52.889Z,3.15
2018-05-09T16:39:20.932Z,3.33
2018-05-09T16:41:48.321Z,3.10
2018-05-09T16:44:15.727Z,3.45
2018-05-09T16:46:43.104Z,3.00
2018-05-09T16:49:10.504Z,2.97
2018-05-09T16:51:37.885Z,4.30
2018-05-09T16:54:05.272Z,4.07
2018-05-09T16:56:32.664Z,2.75
2018-05-09T16:59:00.052Z,3.10
2018-05-09T17:01:28.768Z,3.10
2018-05-09T17:03:56.400Z,3.30
2018-05-09T17:06:23.803Z,3.17
2018-05-09T17:08:51.192Z,2.80
2018-05-09T17:11:18.572Z,3.08
2018-05-09T17:13:45.957Z,2.23
2018-05-09T17:16:14.204Z,3.50
2018-05-09T17:18:41.672Z,3.47
2018-05-09T17:21:20.782Z,3.03
2018-05-09T17:23:48.166Z,2.60
2018-05-09T17:26:15.569Z,2.87
2018-05-09T17:28:44.648Z,3.00
2018-05-09T17:31:12.044Z,3.77
2018-05-09T17:33:39.439Z,3.12
2018-05-09T17:36:06.829Z,3.00
2018-05-09T17:38:34.222Z,3.33
2018-05-09T17:41:01.648Z,3.12
2018-05-09T17:43:29.029Z,3.60
2018-05-09T17:45:56.414Z,3.53
2018-05-09T17:48:23.813Z,3.40
2018-05-09T17:50:51.208Z,3.70
2018-05-09T17:53:18.868Z,2.93
2018-05-09T17:55:47.750Z,2.80
2018-05-09T17:58:15.948Z,2.85
2018-05-09T18:00:43.353Z,2.63
2018-05-09T18:03:10.731Z,3.70
2018-05-09T18:05:38.124Z,3.40
2018-05-09T18:08:05.517Z,4.62
2018-05-09T18:10:32.905Z,3.27
2018-05-09T18:13:00.293Z,4.17
2018-05-09T18:15:27.706Z,3.67
2018-05-09T18:17:55.978Z,3.95
2018-05-09T18:20:23.372Z,3.63
2018-05-09T18:22:50.821Z,4.33
2018-05-09T18:25:18.218Z,4.40
2018-05-09T18:27:45.612Z,4.90
2018-05-09T18:30:13.000Z,4.00
2018-05-09T18:32:40.401Z,3.70
2018-05-09T18:35:07.768Z,4.62
2018-05-09T18:37:35.175Z,3.97
2018-05-09T18:40:03.630Z,5.35
2018-05-09T18:42:30.946Z,4.70
2018-05-09T18:44:58.324Z,4.50
2018-05-09T18:47:25.715Z,4.65
2018-05-09T18:49:55.889Z,3.97
2018-05-09T18:52:23.278Z,4.87
2018-05-09T18:54:52.052Z,4.57
2018-05-09T18:57:19.453Z,4.50
2018-05-09T18:59:46.852Z,4.77
2018-05-09T19:02:14.232Z,4.70
2018-05-09T19:04:41.620Z,5.40
2018-05-09T19:07:09.018Z,4.63
2018-05-09T19:09:36.403Z,6.47
2018-05-09T19:12:04.082Z,4.40
2018-05-09T19:14:31.479Z,4.40
2018-05-09T19:16:59.799Z,4.55
2018-05-09T19:19:27.958Z,4.93
2018-05-09T19:21:56.950Z,4.33
2018-05-09T19:24:24.326Z,5.50
2018-05-09T19:26:51.742Z,4.97
2018-05-09T19:29:19.113Z,5.03
2018-05-09T19:31:46.562Z,4.90
2018-05-09T19:34:13.952Z,5.60
2018-05-09T19:36:41.324Z,4.40
2018-05-09T19:39:08.712Z,4.87
2018-05-09T19:41:36.330Z,5.05
2018-05-09T19:44:03.650Z,4.40
2018-05-09T19:46:31.035Z,5.63
2018-05-09T19:48:59.787Z,5.35
2018-05-09T19:51:27.164Z,7.17
2018-05-09T19:53:54.576Z,6.07
2018-05-09T19:56:21.956Z,5.83
2018-05-09T19:58:49.359Z,6.77
2018-05-09T20:01:16.758Z,6.93
2018-05-09T20:03:44.152Z,5.90
2018-05-09T20:06:11.543Z,5.90
2018-05-09T20:08:38.981Z,5.77
2018-05-09T20:11:06.318Z,5.37
2018-05-09T20:13:33.728Z,6.10
2018-05-09T20:16:01.117Z,5.20
2018-05-09T20:18:28.670Z,5.27
2018-05-09T20:20:56.041Z,6.70
2018-05-09T20:23:23.464Z,6.43
2018-05-09T20:25:50.876Z,6.13
2018-05-09T20:28:18.267Z,5.33
2018-05-09T20:30:51.316Z,5.93
2018-05-09T20:33:18.716Z,5.47
2018-05-09T20:35:46.100Z,5.57
2018-05-09T20:38:14.067Z,5.60
2018-05-09T20:40:41.445Z,5.70
2018-05-09T20:43:08.849Z,6.10
2018-05-09T20:45:36.241Z,5.90
2018-05-09T20:48:03.621Z,5.70
2018-05-09T20:50:31.305Z,5.45
2018-05-09T20:52:58.687Z,6.47
2018-05-09T20:55:27.894Z,5.70
2018-05-09T20:57:55.335Z,6.25
2018-05-09T21:00:22.724Z,6.27
2018-05-09T21:02:50.145Z,7.67
2018-05-09T21:05:17.512Z,6.00
2018-05-09T21:07:55.623Z,5.43
2018-05-09T21:10:23.016Z,5.50
2018-05-09T21:12:50.397Z,6.73
2018-05-09T21:15:17.791Z,6.10
2018-05-09T21:17:45.172Z,5.27
2018-05-09T21:20:12.600Z,5.33
2018-05-09T21:22:39.956Z,5.72
2018-05-09T21:25:07.356Z,6.22
2018-05-09T21:27:34.797Z,6.10
2018-05-09T21:30:02.794Z,6.82
2018-05-09T21:32:30.187Z,7.83
2018-05-09T21:34:57.584Z,6.63
2018-05-09T21:37:24.966Z,6.73
2018-05-09T21:39:52.360Z,6.00
2018-05-09T21:42:19.749Z,7.00
2018-05-09T21:44:47.142Z,5.55
2018-05-09T21:47:14.524Z,4.03
2018-05-09T21:49:41.942Z,2.85
2018-05-09T21:52:09.296Z,2.90
2018-05-09T21:54:36.681Z,2.90
2018-05-09T21:57:04.096Z,2.77
2018-05-09T22:02:38.176Z,2.63
2018-05-09T22:05:05.557Z,2.00
2018-05-09T22:07:32.945Z,1.73
2018-05-09T22:10:00.372Z,2.43
2018-05-09T22:12:27.761Z,3.20
2018-05-09T22:14:55.154Z,2.77
2018-05-09T22:17:22.548Z,3.00
2018-05-09T22:19:49.937Z,2.40
2018-05-09T22:22:17.330Z,2.73
2018-05-09T22:24:45.821Z,3.20
2018-05-09T22:27:13.238Z,2.60
2018-05-09T22:29:40.628Z,3.10
2018-05-09T22:32:08.032Z,3.73
2018-05-09T22:34:35.407Z,3.20
2018-05-09T22:37:02.796Z,3.33
2018-05-09T22:39:30.197Z,2.93
2018-05-09T22:41:57.593Z,3.40
2018-05-09T22:44:24.975Z,3.00
2018-05-09T22:46:52.378Z,2.50
2018-05-09T22:49:19.763Z,3.03
2018-05-09T22:51:47.153Z,2.87
2018-05-09T22:54:14.536Z,3.10
2018-05-09T22:56:41.920Z,3.43
2018-05-09T22:59:09.305Z,4.12
2018-05-09T23:01:36.688Z,4.00
2018-05-09T23:04:04.067Z,4.90
2018-05-09T23:06:31.471Z,3.90
2018-05-09T23:08:58.874Z,4.87
2018-05-09T23:11:26.249Z,3.07
2018-05-09T23:13:53.639Z,4.10
2018-05-09T23:16:21.039Z,5.10
2018-05-09T23:18:48.425Z,5.90
2018-05-09T23:21:15.840Z,5.47
2018-05-09T23:23:43.234Z,5.70
2018-05-09T23:26:10.606Z,4.60
2018-05-09T23:28:38.018Z,3.90
2018-05-09T23:31:05.548Z,4.00
2018-05-09T23:33:32.955Z,4.17
2018-05-09T23:36:00.351Z,3.60
2018-05-09T23:38:27.746Z,4.37
2018-05-09T23:40:55.133Z,6.32
2018-05-09T23:43:22.533Z,5.40
2018-05-09T23:45:49.923Z,6.27
2018-05-09T23:48:17.309Z,5.73
2018-05-09T23:50:44.693Z,6.43
2018-05-09T23:53:12.071Z,6.27
2018-05-09T23:55:39.513Z,6.27
2018-05-09T23:58:06.848Z,6.25
